Hunmanby, United Kingdom
Current Conditions -  °F | °C
As of 11:50 AM on Thursday 29 Jan 2015 (Local Time) from EGXV Reporting Station
Few Clouds Few Clouds  
Wind Chill: -4°   Ceiling: Unl
Heat Index:   Visibility: 6mi
Dew Point: -1°   Wind: 17mph
Humidity: 81%   Direction: 240°WSW
Pressure: 28.82"   Gusts: NA
Location:  54.18°N, 0.32°W
Report Text: EGXV 291150Z AUTO 24015KT 9999 FEW012/// 02/M01 Q0976
Loading
Personal Weather Stations






























Interactive Weather Map New forecast layout! Learn more

10-Day Weather Forecast

Advertisements
Track Severe Weather on mobile